Prince, Canada
Current Conditions -  °F | °C
As of 7:37 AM on Friday 28 Nov 2014 (Local Time) from CYQW Reporting Station
Light Snow Light Snow  
Wind Chill: -21°   Ceiling: 2500
Heat Index:   Visibility: 3mi
Dew Point: -2°   Wind: 22mph
Humidity: 85%   Direction: 90°E
Pressure: 29.76"   Gusts: 32mph
Location:  52.97°N, 108.38°W
Report Text: CYQW 281337Z AUTO 09019G28KT 3SM -SN BKN025 OVC047 M17/M19 A2976 RMK PRESFR SLP123
Loading
Personal Weather Stations






























Interactive Weather Map New forecast layout! Learn more

10-Day Weather Forecast

Advertisements
Track Severe Weather on mobile